sensor_id;sensor_type;location;lat;lon;timestamp;temperature;humidity
21648;DHT22;10985;54.182;7.890;2023-05-14T00:02:16;12.20;99.90
21648;DHT22;10985;54.182;7.890;2023-05-14T00:04:42;12.30;99.90
21648;DHT22;10985;54.182;7.890;2023-05-14T00:07:07;12.20;99.90
21648;DHT22;10985;54.182;7.890;2023-05-14T00:09:33;12.20;99.90
21648;DHT22;10985;54.182;7.890;2023-05-14T00:11:59;12.30;99.90
21648;DHT22;10985;54.182;7.890;2023-05-14T00:14:25;12.20;99.90
21648;DHT22;10985;54.182;7.890;2023-05-14T00:16:50;12.20;99.90
21648;DHT22;10985;54.182;7.890;2023-05-14T00:19:16;12.20;99.90
21648;DHT22;10985;54.182;7.890;2023-05-14T00:21:42;12.20;99.90
21648;DHT22;10985;54.182;7.890;2023-05-14T00:24:07;12.20;99.90
21648;DHT22;10985;54.182;7.890;2023-05-14T00:26:33;12.20;99.90
21648;DHT22;10985;54.182;7.890;2023-05-14T00:28:58;12.20;99.90
21648;DHT22;10985;54.182;7.890;2023-05-14T00:31:24;12.20;99.90
21648;DHT22;10985;54.182;7.890;2023-05-14T00:33:49;12.20;99.90
21648;DHT22;10985;54.182;7.890;2023-05-14T00:36:15;12.20;99.90
21648;DHT22;10985;54.182;7.890;2023-05-14T00:38:40;12.20;99.90
21648;DHT22;10985;54.182;7.890;2023-05-14T00:41:06;12.20;99.90
21648;DHT22;10985;54.182;7.890;2023-05-14T00:43:32;12.20;99.90
21648;DHT22;10985;54.182;7.890;2023-05-14T00:45:58;12.20;99.90
21648;DHT22;10985;54.182;7.890;2023-05-14T00:48:23;12.20;99.90
21648;DHT22;10985;54.182;7.890;2023-05-14T00:50:49;12.20;99.90
21648;DHT22;10985;54.182;7.890;2023-05-14T00:53:16;12.20;99.90
21648;DHT22;10985;54.182;7.890;2023-05-14T00:55:43;12.20;99.90
21648;DHT22;10985;54.182;7.890;2023-05-14T00:58:11;12.20;99.90
21648;DHT22;10985;54.182;7.890;2023-05-14T01:00:38;12.20;99.90
21648;DHT22;10985;54.182;7.890;2023-05-14T01:03:04;12.20;99.90
21648;DHT22;10985;54.182;7.890;2023-05-14T01:11:06;12.20;99.90
21648;DHT22;10985;54.182;7.890;2023-05-14T01:16:12;12.20;99.90
21648;DHT22;10985;54.182;7.890;2023-05-14T01:18:42;12.20;99.90
21648;DHT22;10985;54.182;7.890;2023-05-14T01:21:23;12.20;99.90
21648;DHT22;10985;54.182;7.890;2023-05-14T01:23:49;12.20;99.90
21648;DHT22;10985;54.182;7.890;2023-05-14T01:26:14;12.30;99.90
21648;DHT22;10985;54.182;7.890;2023-05-14T01:28:40;12.30;99.90
21648;DHT22;10985;54.182;7.890;2023-05-14T01:31:11;12.30;99.90
21648;DHT22;10985;54.182;7.890;2023-05-14T01:33:41;12.30;99.90
21648;DHT22;10985;54.182;7.890;2023-05-14T01:36:08;12.30;99.90
21648;DHT22;10985;54.182;7.890;2023-05-14T01:38:34;12.30;99.90
21648;DHT22;10985;54.182;7.890;2023-05-14T01:41:01;12.30;99.90
21648;DHT22;10985;54.182;7.890;2023-05-14T01:43:26;12.30;99.90
21648;DHT22;10985;54.182;7.890;2023-05-14T01:45:52;12.30;99.90
21648;DHT22;10985;54.182;7.890;2023-05-14T01:48:19;12.30;99.90
21648;DHT22;10985;54.182;7.890;2023-05-14T01:50:45;12.30;99.90
21648;DHT22;10985;54.182;7.890;2023-05-14T01:53:11;12.30;99.90
21648;DHT22;10985;54.182;7.890;2023-05-14T01:55:36;12.30;99.90
21648;DHT22;10985;54.182;7.890;2023-05-14T01:58:02;12.30;99.90
21648;DHT22;10985;54.182;7.890;2023-05-14T02:00:27;12.30;99.90
21648;DHT22;10985;54.182;7.890;2023-05-14T02:02:53;12.30;99.90
21648;DHT22;10985;54.182;7.890;2023-05-14T02:05:18;12.30;99.90
21648;DHT22;10985;54.182;7.890;2023-05-14T02:07:44;12.40;99.90
21648;DHT22;10985;54.182;7.890;2023-05-14T02:10:09;12.40;99.90
21648;DHT22;10985;54.182;7.890;2023-05-14T02:12:35;12.30;99.90
21648;DHT22;10985;54.182;7.890;2023-05-14T02:15:02;12.40;99.90
21648;DHT22;10985;54.182;7.890;2023-05-14T02:17:28;12.40;99.90
21648;DHT22;10985;54.182;7.890;2023-05-14T02:19:53;12.40;99.90
21648;DHT22;10985;54.182;7.890;2023-05-14T02:22:19;12.40;99.90
21648;DHT22;10985;54.182;7.890;2023-05-14T02:24:44;12.40;99.90
21648;DHT22;10985;54.182;7.890;2023-05-14T02:27:10;12.40;99.90
21648;DHT22;10985;54.182;7.890;2023-05-14T02:29:37;12.40;99.90
21648;DHT22;10985;54.182;7.890;2023-05-14T02:32:03;12.40;99.90
21648;DHT22;10985;54.182;7.890;2023-05-14T02:34:28;12.40;99.90
21648;DHT22;10985;54.182;7.890;2023-05-14T02:36:54;12.40;99.90
21648;DHT22;10985;54.182;7.890;2023-05-14T02:39:19;12.40;99.90
21648;DHT22;10985;54.182;7.890;2023-05-14T02:41:45;12.40;99.90
21648;DHT22;10985;54.182;7.890;2023-05-14T02:44:10;12.40;99.90
21648;DHT22;10985;54.182;7.890;2023-05-14T02:46:36;12.40;99.90
21648;DHT22;10985;54.182;7.890;2023-05-14T02:49:01;12.40;99.90
21648;DHT22;10985;54.182;7.890;2023-05-14T02:51:27;12.40;99.90
21648;DHT22;10985;54.182;7.890;2023-05-14T02:53:52;12.40;99.90
21648;DHT22;10985;54.182;7.890;2023-05-14T02:56:18;12.40;99.90
21648;DHT22;10985;54.182;7.890;2023-05-14T02:58:44;12.40;99.90
21648;DHT22;10985;54.182;7.890;2023-05-14T03:01:09;12.40;99.90
21648;DHT22;10985;54.182;7.890;2023-05-14T03:03:36;12.40;99.90
21648;DHT22;10985;54.182;7.890;2023-05-14T03:06:02;12.40;99.90
21648;DHT22;10985;54.182;7.890;2023-05-14T03:08:28;12.40;99.90
21648;DHT22;10985;54.182;7.890;2023-05-14T03:10:53;12.40;99.90
21648;DHT22;10985;54.182;7.890;2023-05-14T03:13:19;12.40;99.90
21648;DHT22;10985;54.182;7.890;2023-05-14T03:15:45;12.40;99.90
21648;DHT22;10985;54.182;7.890;2023-05-14T03:18:12;12.40;99.90
21648;DHT22;10985;54.182;7.890;2023-05-14T03:20:37;12.40;99.90
21648;DHT22;10985;54.182;7.890;2023-05-14T03:23:03;12.40;99.90
21648;DHT22;10985;54.182;7.890;2023-05-14T03:25:28;12.40;99.90
21648;DHT22;10985;54.182;7.890;2023-05-14T03:27:54;12.40;99.90
21648;DHT22;10985;54.182;7.890;2023-05-14T03:30:19;12.40;99.90
21648;DHT22;10985;54.182;7.890;2023-05-14T03:32:45;12.40;99.90
21648;DHT22;10985;54.182;7.890;2023-05-14T03:35:10;12.40;99.90
21648;DHT22;10985;54.182;7.890;2023-05-14T03:37:36;12.40;99.90
21648;DHT22;10985;54.182;7.890;2023-05-14T03:40:01;12.40;99.90
21648;DHT22;10985;54.182;7.890;2023-05-14T03:42:27;12.40;99.90
21648;DHT22;10985;54.182;7.890;2023-05-14T03:44:52;12.40;99.90
21648;DHT22;10985;54.182;7.890;2023-05-14T03:47:18;12.40;99.90
21648;DHT22;10985;54.182;7.890;2023-05-14T03:49:43;12.40;99.90
21648;DHT22;10985;54.182;7.890;2023-05-14T03:52:09;12.40;99.90
21648;DHT22;10985;54.182;7.890;2023-05-14T03:54:34;12.40;99.90
21648;DHT22;10985;54.182;7.890;2023-05-14T03:57:00;12.40;99.90
21648;DHT22;10985;54.182;7.890;2023-05-14T03:59:26;12.40;99.90
21648;DHT22;10985;54.182;7.890;2023-05-14T04:01:51;12.40;99.90
21648;DHT22;10985;54.182;7.890;2023-05-14T04:04:17;12.40;99.90
21648;DHT22;10985;54.182;7.890;2023-05-14T04:06:42;12.40;99.90
21648;DHT22;10985;54.182;7.890;2023-05-14T04:09:08;12.40;99.90
21648;DHT22;10985;54.182;7.890;2023-05-14T04:11:35;12.40;99.90
21648;DHT22;10985;54.182;7.890;2023-05-14T04:14:00;12.40;99.90
21648;DHT22;10985;54.182;7.890;2023-05-14T04:16:26;12.40;99.90
21648;DHT22;10985;54.182;7.890;2023-05-14T04:18:51;12.40;99.90
21648;DHT22;10985;54.182;7.890;2023-05-14T04:21:17;12.50;99.90
21648;DHT22;10985;54.182;7.890;2023-05-14T04:23:42;12.40;99.90
21648;DHT22;10985;54.182;7.890;2023-05-14T04:26:08;12.50;99.90
21648;DHT22;10985;54.182;7.890;2023-05-14T04:28:33;12.50;99.90
21648;DHT22;10985;54.182;7.890;2023-05-14T04:30:59;12.50;99.90
21648;DHT22;10985;54.182;7.890;2023-05-14T04:33:24;12.50;99.90
21648;DHT22;10985;54.182;7.890;2023-05-14T04:35:51;12.50;99.90
21648;DHT22;10985;54.182;7.890;2023-05-14T04:38:16;12.50;99.90
21648;DHT22;10985;54.182;7.890;2023-05-14T04:40:42;12.50;99.90
21648;DHT22;10985;54.182;7.890;2023-05-14T04:43:07;12.50;99.90
21648;DHT22;10985;54.182;7.890;2023-05-14T04:45:33;12.50;99.90
21648;DHT22;10985;54.182;7.890;2023-05-14T04:47:59;12.60;99.90
21648;DHT22;10985;54.182;7.890;2023-05-14T04:50:24;12.60;99.90
21648;DHT22;10985;54.182;7.890;2023-05-14T04:52:50;12.60;99.90
21648;DHT22;10985;54.182;7.890;2023-05-14T04:55:16;12.60;99.90
21648;DHT22;10985;54.182;7.890;2023-05-14T04:57:42;12.60;99.90
21648;DHT22;10985;54.182;7.890;2023-05-14T05:00:08;12.60;99.90
21648;DHT22;10985;54.182;7.890;2023-05-14T05:02:36;12.60;99.90
21648;DHT22;10985;54.182;7.890;2023-05-14T05:05:02;12.60;99.90
21648;DHT22;10985;54.182;7.890;2023-05-14T05:07:28;12.60;99.90
21648;DHT22;10985;54.182;7.890;2023-05-14T05:09:53;12.60;99.90
21648;DHT22;10985;54.182;7.890;2023-05-14T05:12:19;12.60;99.90
21648;DHT22;10985;54.182;7.890;2023-05-14T05:14:45;12.60;99.90
21648;DHT22;10985;54.182;7.890;2023-05-14T05:17:11;12.60;99.90
21648;DHT22;10985;54.182;7.890;2023-05-14T05:19:36;12.60;99.90
21648;DHT22;10985;54.182;7.890;2023-05-14T05:22:02;12.60;99.90
21648;DHT22;10985;54.182;7.890;2023-05-14T05:24:27;12.60;99.90
21648;DHT22;10985;54.182;7.890;2023-05-14T05:26:53;12.70;99.90
21648;DHT22;10985;54.182;7.890;2023-05-14T05:29:20;12.70;99.90
21648;DHT22;10985;54.182;7.890;2023-05-14T05:31:45;12.70;99.90
21648;DHT22;10985;54.182;7.890;2023-05-14T05:34:11;12.70;99.90
21648;DHT22;10985;54.182;7.890;2023-05-14T05:36:37;12.70;99.90
21648;DHT22;10985;54.182;7.890;2023-05-14T05:39:02;12.70;99.90
21648;DHT22;10985;54.182;7.890;2023-05-14T05:41:28;12.80;99.90
21648;DHT22;10985;54.182;7.890;2023-05-14T05:43:54;12.80;99.90
21648;DHT22;10985;54.182;7.890;2023-05-14T05:46:20;12.80;99.90
21648;DHT22;10985;54.182;7.890;2023-05-14T05:48:45;12.80;99.90
21648;DHT22;10985;54.182;7.890;2023-05-14T05:51:11;12.80;99.90
21648;DHT22;10985;54.182;7.890;2023-05-14T05:53:37;12.80;99.90
21648;DHT22;10985;54.182;7.890;2023-05-14T05:56:02;12.80;99.90
21648;DHT22;10985;54.182;7.890;2023-05-14T05:58:28;12.90;99.90
21648;DHT22;10985;54.182;7.890;2023-05-14T06:00:53;12.90;99.90
21648;DHT22;10985;54.182;7.890;2023-05-14T06:03:19;12.90;99.90
21648;DHT22;10985;54.182;7.890;2023-05-14T06:05:46;12.90;99.90
21648;DHT22;10985;54.182;7.890;2023-05-14T06:08:11;13.00;99.90
21648;DHT22;10985;54.182;7.890;2023-05-14T06:10:37;13.00;99.90
21648;DHT22;10985;54.182;7.890;2023-05-14T06:13:02;13.00;99.90
21648;DHT22;10985;54.182;7.890;2023-05-14T06:15:28;13.00;99.90
21648;DHT22;10985;54.182;7.890;2023-05-14T06:17:53;13.10;99.90
21648;DHT22;10985;54.182;7.890;2023-05-14T06:20:19;13.10;99.90
21648;DHT22;10985;54.182;7.890;2023-05-14T06:22:44;13.10;99.90
21648;DHT22;10985;54.182;7.890;2023-05-14T06:25:10;13.20;99.90
21648;DHT22;10985;54.182;7.890;2023-05-14T06:27:35;13.20;99.90
21648;DHT22;10985;54.182;7.890;2023-05-14T06:30:01;13.30;99.90
21648;DHT22;10985;54.182;7.890;2023-05-14T06:32:26;13.30;99.90
21648;DHT22;10985;54.182;7.890;2023-05-14T06:34:52;13.40;99.90
21648;DHT22;10985;54.182;7.890;2023-05-14T06:37:17;13.40;99.90
21648;DHT22;10985;54.182;7.890;2023-05-14T06:39:43;13.40;99.90
21648;DHT22;10985;54.182;7.890;2023-05-14T06:42:14;13.50;99.90
21648;DHT22;10985;54.182;7.890;2023-05-14T06:44:40;13.60;99.90
21648;DHT22;10985;54.182;7.890;2023-05-14T06:47:06;13.60;99.90
21648;DHT22;10985;54.182;7.890;2023-05-14T06:49:33;13.70;99.90
21648;DHT22;10985;54.182;7.890;2023-05-14T06:51:59;13.70;99.90
21648;DHT22;10985;54.182;7.890;2023-05-14T06:54:24;13.70;99.90
21648;DHT22;10985;54.182;7.890;2023-05-14T06:56:50;13.80;99.90
21648;DHT22;10985;54.182;7.890;2023-05-14T06:59:15;13.90;99.90
21648;DHT22;10985;54.182;7.890;2023-05-14T07:01:41;14.00;99.90
21648;DHT22;10985;54.182;7.890;2023-05-14T07:04:06;14.10;99.90
21648;DHT22;10985;54.182;7.890;2023-05-14T07:06:32;14.20;99.90
21648;DHT22;10985;54.182;7.890;2023-05-14T07:08:58;14.20;99.90
21648;DHT22;10985;54.182;7.890;2023-05-14T07:11:23;14.40;99.90
21648;DHT22;10985;54.182;7.890;2023-05-14T07:13:49;14.40;99.90
21648;DHT22;10985;54.182;7.890;2023-05-14T07:16:14;14.50;99.90
21648;DHT22;10985;54.182;7.890;2023-05-14T07:18:40;14.60;99.90
21648;DHT22;10985;54.182;7.890;2023-05-14T07:21:05;14.60;99.90
21648;DHT22;10985;54.182;7.890;2023-05-14T07:23:32;14.70;99.90
21648;DHT22;10985;54.182;7.890;2023-05-14T07:26:00;14.80;99.90
21648;DHT22;10985;54.182;7.890;2023-05-14T07:28:25;14.80;99.90
21648;DHT22;10985;54.182;7.890;2023-05-14T07:30:51;14.90;99.90
21648;DHT22;10985;54.182;7.890;2023-05-14T07:33:16;15.00;99.90
21648;DHT22;10985;54.182;7.890;2023-05-14T07:35:42;15.10;99.90
21648;DHT22;10985;54.182;7.890;2023-05-14T07:38:07;15.20;99.90
21648;DHT22;10985;54.182;7.890;2023-05-14T07:40:33;15.30;99.90
21648;DHT22;10985;54.182;7.890;2023-05-14T07:42:58;15.40;99.90
21648;DHT22;10985;54.182;7.890;2023-05-14T07:45:24;15.60;99.90
21648;DHT22;10985;54.182;7.890;2023-05-14T07:47:49;15.70;99.90
21648;DHT22;10985;54.182;7.890;2023-05-14T07:50:17;15.80;99.90
21648;DHT22;10985;54.182;7.890;2023-05-14T07:52:43;16.00;99.90
21648;DHT22;10985;54.182;7.890;2023-05-14T07:55:09;16.20;99.90
21648;DHT22;10985;54.182;7.890;2023-05-14T07:57:34;16.40;99.90
21648;DHT22;10985;54.182;7.890;2023-05-14T08:00:00;16.60;99.90
21648;DHT22;10985;54.182;7.890;2023-05-14T08:02:26;16.90;99.90
21648;DHT22;10985;54.182;7.890;2023-05-14T08:04:52;17.10;99.90
21648;DHT22;10985;54.182;7.890;2023-05-14T08:07:18;17.20;99.90
21648;DHT22;10985;54.182;7.890;2023-05-14T08:09:43;17.30;99.90
21648;DHT22;10985;54.182;7.890;2023-05-14T08:12:09;17.40;99.90
21648;DHT22;10985;54.182;7.890;2023-05-14T08:14:34;17.50;99.90
21648;DHT22;10985;54.182;7.890;2023-05-14T08:17:00;17.60;99.90
21648;DHT22;10985;54.182;7.890;2023-05-14T08:19:25;17.60;99.90
21648;DHT22;10985;54.182;7.890;2023-05-14T08:21:52;17.70;99.90
21648;DHT22;10985;54.182;7.890;2023-05-14T08:24:18;17.60;99.90
21648;DHT22;10985;54.182;7.890;2023-05-14T08:26:43;17.70;99.90
21648;DHT22;10985;54.182;7.890;2023-05-14T08:29:09;17.70;99.90
21648;DHT22;10985;54.182;7.890;2023-05-14T08:31:34;17.70;99.90
21648;DHT22;10985;54.182;7.890;2023-05-14T08:34:00;17.70;99.90
21648;DHT22;10985;54.182;7.890;2023-05-14T08:36:25;17.70;99.90
21648;DHT22;10985;54.182;7.890;2023-05-14T08:38:51;17.70;99.90
21648;DHT22;10985;54.182;7.890;2023-05-14T08:41:16;17.70;99.90
21648;DHT22;10985;54.182;7.890;2023-05-14T08:44:09;17.70;99.90
21648;DHT22;10985;54.182;7.890;2023-05-14T08:46:37;17.70;99.90
21648;DHT22;10985;54.182;7.890;2023-05-14T08:49:29;17.70;99.90
21648;DHT22;10985;54.182;7.890;2023-05-14T08:51:57;17.80;99.90
21648;DHT22;10985;54.182;7.890;2023-05-14T08:54:24;17.80;99.90
21648;DHT22;10985;54.182;7.890;2023-05-14T08:56:51;17.80;99.90
21648;DHT22;10985;54.182;7.890;2023-05-14T08:59:16;18.00;99.90
21648;DHT22;10985;54.182;7.890;2023-05-14T09:01:46;18.00;99.90
21648;DHT22;10985;54.182;7.890;2023-05-14T09:04:14;18.10;99.90
21648;DHT22;10985;54.182;7.890;2023-05-14T09:06:41;18.30;99.90
21648;DHT22;10985;54.182;7.890;2023-05-14T09:09:08;18.60;99.90
21648;DHT22;10985;54.182;7.890;2023-05-14T09:11:40;18.80;99.90
21648;DHT22;10985;54.182;7.890;2023-05-14T09:14:06;19.20;99.90
21648;DHT22;10985;54.182;7.890;2023-05-14T09:16:31;19.60;99.90
21648;DHT22;10985;54.182;7.890;2023-05-14T09:18:57;19.90;99.90
21648;DHT22;10985;54.182;7.890;2023-05-14T09:21:22;20.40;99.90
21648;DHT22;10985;54.182;7.890;2023-05-14T09:23:52;20.90;99.90
21648;DHT22;10985;54.182;7.890;2023-05-14T09:26:22;21.40;99.90
21648;DHT22;10985;54.182;7.890;2023-05-14T09:28:51;21.70;99.90
21648;DHT22;10985;54.182;7.890;2023-05-14T09:31:17;22.00;99.90
21648;DHT22;10985;54.182;7.890;2023-05-14T09:33:49;22.20;99.90
21648;DHT22;10985;54.182;7.890;2023-05-14T09:36:16;22.30;99.90
21648;DHT22;10985;54.182;7.890;2023-05-14T09:38:41;22.60;99.90
21648;DHT22;10985;54.182;7.890;2023-05-14T09:41:07;22.80;99.90
21648;DHT22;10985;54.182;7.890;2023-05-14T09:43:32;22.90;99.90
21648;DHT22;10985;54.182;7.890;2023-05-14T09:45:58;23.10;99.90
21648;DHT22;10985;54.182;7.890;2023-05-14T09:48:24;23.30;99.90
21648;DHT22;10985;54.182;7.890;2023-05-14T09:50:50;23.50;99.90
21648;DHT22;10985;54.182;7.890;2023-05-14T09:53:16;23.70;99.90
21648;DHT22;10985;54.182;7.890;2023-05-14T09:55:43;23.80;99.90
21648;DHT22;10985;54.182;7.890;2023-05-14T09:58:08;23.90;99.90
21648;DHT22;10985;54.182;7.890;2023-05-14T10:00:34;24.10;99.90
21648;DHT22;10985;54.182;7.890;2023-05-14T10:03:05;24.30;99.90
21648;DHT22;10985;54.182;7.890;2023-05-14T10:05:34;24.50;99.90
21648;DHT22;10985;54.182;7.890;2023-05-14T10:08:03;24.70;99.90
21648;DHT22;10985;54.182;7.890;2023-05-14T10:10:31;24.90;99.90
21648;DHT22;10985;54.182;7.890;2023-05-14T10:13:03;25.10;99.90
21648;DHT22;10985;54.182;7.890;2023-05-14T10:15:39;25.00;99.90
21648;DHT22;10985;54.182;7.890;2023-05-14T10:18:11;25.30;99.90
21648;DHT22;10985;54.182;7.890;2023-05-14T10:20:38;25.20;99.90
21648;DHT22;10985;54.182;7.890;2023-05-14T10:23:05;25.50;99.90
21648;DHT22;10985;54.182;7.890;2023-05-14T10:25:33;25.80;99.90
21648;DHT22;10985;54.182;7.890;2023-05-14T10:27:59;25.90;99.90
21648;DHT22;10985;54.182;7.890;2023-05-14T10:30:26;26.10;99.90
21648;DHT22;10985;54.182;7.890;2023-05-14T10:33:08;26.40;99.90
21648;DHT22;10985;54.182;7.890;2023-05-14T10:38:35;26.90;99.90
21648;DHT22;10985;54.182;7.890;2023-05-14T10:41:13;27.20;99.90
21648;DHT22;10985;54.182;7.890;2023-05-14T10:43:42;27.40;99.90
21648;DHT22;10985;54.182;7.890;2023-05-14T10:46:10;27.30;99.90
21648;DHT22;10985;54.182;7.890;2023-05-14T10:48:37;27.40;99.90
21648;DHT22;10985;54.182;7.890;2023-05-14T10:51:06;27.40;99.90
21648;DHT22;10985;54.182;7.890;2023-05-14T10:53:38;27.50;99.90
21648;DHT22;10985;54.182;7.890;2023-05-14T10:56:13;27.50;99.90
21648;DHT22;10985;54.182;7.890;2023-05-14T10:58:41;27.50;99.90
21648;DHT22;10985;54.182;7.890;2023-05-14T11:01:10;27.50;99.90
21648;DHT22;10985;54.182;7.890;2023-05-14T11:03:41;27.60;99.90
21648;DHT22;10985;54.182;7.890;2023-05-14T11:06:07;27.60;99.90
21648;DHT22;10985;54.182;7.890;2023-05-14T11:08:33;27.70;99.90
21648;DHT22;10985;54.182;7.890;2023-05-14T11:10:59;27.70;99.90
21648;DHT22;10985;54.182;7.890;2023-05-14T11:13:27;27.80;99.90
21648;DHT22;10985;54.182;7.890;2023-05-14T11:15:53;27.80;99.90
21648;DHT22;10985;54.182;7.890;2023-05-14T11:18:27;27.90;99.90
21648;DHT22;10985;54.182;7.890;2023-05-14T11:20:56;28.00;99.90
21648;DHT22;10985;54.182;7.890;2023-05-14T11:23:22;28.00;99.90
21648;DHT22;10985;54.182;7.890;2023-05-14T11:25:50;28.10;99.90
21648;DHT22;10985;54.182;7.890;2023-05-14T11:28:17;28.30;99.90
21648;DHT22;10985;54.182;7.890;2023-05-14T11:30:42;28.40;99.90
21648;DHT22;10985;54.182;7.890;2023-05-14T11:33:09;28.50;99.90
21648;DHT22;10985;54.182;7.890;2023-05-14T11:35:35;28.50;99.90
21648;DHT22;10985;54.182;7.890;2023-05-14T11:38:01;28.50;99.90
21648;DHT22;10985;54.182;7.890;2023-05-14T11:40:26;28.60;99.90
21648;DHT22;10985;54.182;7.890;2023-05-14T11:42:52;28.70;99.90
21648;DHT22;10985;54.182;7.890;2023-05-14T11:45:24;28.70;99.90
21648;DHT22;10985;54.182;7.890;2023-05-14T11:47:51;28.70;99.90
21648;DHT22;10985;54.182;7.890;2023-05-14T11:50:18;28.90;99.90
21648;DHT22;10985;54.182;7.890;2023-05-14T11:52:43;28.90;99.90
21648;DHT22;10985;54.182;7.890;2023-05-14T11:55:12;28.90;99.90
21648;DHT22;10985;54.182;7.890;2023-05-14T11:57:37;28.90;99.90
21648;DHT22;10985;54.182;7.890;2023-05-14T12:00:07;29.00;99.90
21648;DHT22;10985;54.182;7.890;2023-05-14T12:02:33;29.00;99.90
21648;DHT22;10985;54.182;7.890;2023-05-14T12:04:59;29.00;99.90
21648;DHT22;10985;54.182;7.890;2023-05-14T12:07:28;29.00;99.90
21648;DHT22;10985;54.182;7.890;2023-05-14T12:10:00;29.00;99.90
21648;DHT22;10985;54.182;7.890;2023-05-14T12:12:25;29.00;99.90
21648;DHT22;10985;54.182;7.890;2023-05-14T12:14:51;29.00;99.90
21648;DHT22;10985;54.182;7.890;2023-05-14T12:17:21;28.90;99.90
21648;DHT22;10985;54.182;7.890;2023-05-14T12:19:49;28.80;99.90
21648;DHT22;10985;54.182;7.890;2023-05-14T12:22:19;28.70;99.90
21648;DHT22;10985;54.182;7.890;2023-05-14T12:24:56;28.60;99.90
21648;DHT22;10985;54.182;7.890;2023-05-14T12:27:23;28.50;99.90
21648;DHT22;10985;54.182;7.890;2023-05-14T12:29:50;28.30;99.70
21648;DHT22;10985;54.182;7.890;2023-05-14T12:32:17;28.40;99.40
21648;DHT22;10985;54.182;7.890;2023-05-14T12:34:44;28.30;99.40
21648;DHT22;10985;54.182;7.890;2023-05-14T12:37:09;28.20;99.90
21648;DHT22;10985;54.182;7.890;2023-05-14T12:39:35;28.20;99.90
21648;DHT22;10985;54.182;7.890;2023-05-14T12:42:01;28.20;99.90
21648;DHT22;10985;54.182;7.890;2023-05-14T12:44:26;28.10;99.90
21648;DHT22;10985;54.182;7.890;2023-05-14T12:46:52;28.00;99.90
21648;DHT22;10985;54.182;7.890;2023-05-14T12:49:18;28.10;99.90
21648;DHT22;10985;54.182;7.890;2023-05-14T12:51:44;28.10;99.90
21648;DHT22;10985;54.182;7.890;2023-05-14T12:54:12;28.10;99.90
21648;DHT22;10985;54.182;7.890;2023-05-14T12:56:38;28.00;99.90
21648;DHT22;10985;54.182;7.890;2023-05-14T12:59:03;27.90;99.90
21648;DHT22;10985;54.182;7.890;2023-05-14T13:01:29;27.90;99.90
21648;DHT22;10985;54.182;7.890;2023-05-14T13:03:55;27.80;99.90
21648;DHT22;10985;54.182;7.890;2023-05-14T13:06:20;27.70;99.90
21648;DHT22;10985;54.182;7.890;2023-05-14T13:08:46;27.50;99.90
21648;DHT22;10985;54.182;7.890;2023-05-14T13:11:11;27.40;99.80
21648;DHT22;10985;54.182;7.890;2023-05-14T13:13:37;27.30;99.90
21648;DHT22;10985;54.182;7.890;2023-05-14T13:16:03;27.20;99.90
21648;DHT22;10985;54.182;7.890;2023-05-14T13:18:28;27.00;99.90
21648;DHT22;10985;54.182;7.890;2023-05-14T13:20:54;26.80;99.90
21648;DHT22;10985;54.182;7.890;2023-05-14T13:23:20;26.70;99.90
21648;DHT22;10985;54.182;7.890;2023-05-14T13:25:45;26.50;99.90
21648;DHT22;10985;54.182;7.890;2023-05-14T13:28:11;26.30;99.90
21648;DHT22;10985;54.182;7.890;2023-05-14T13:30:37;26.20;99.90
21648;DHT22;10985;54.182;7.890;2023-05-14T13:33:02;26.00;99.90
21648;DHT22;10985;54.182;7.890;2023-05-14T13:35:28;25.80;99.90
21648;DHT22;10985;54.182;7.890;2023-05-14T13:37:53;25.60;99.90
21648;DHT22;10985;54.182;7.890;2023-05-14T13:40:19;25.50;99.90
21648;DHT22;10985;54.182;7.890;2023-05-14T13:42:44;25.30;99.90
21648;DHT22;10985;54.182;7.890;2023-05-14T13:45:10;25.20;99.90
21648;DHT22;10985;54.182;7.890;2023-05-14T13:47:37;25.10;99.90
21648;DHT22;10985;54.182;7.890;2023-05-14T13:50:03;25.00;99.90
21648;DHT22;10985;54.182;7.890;2023-05-14T13:52:28;24.80;99.90
21648;DHT22;10985;54.182;7.890;2023-05-14T13:54:54;24.70;99.90
21648;DHT22;10985;54.182;7.890;2023-05-14T13:57:20;24.50;99.90
21648;DHT22;10985;54.182;7.890;2023-05-14T13:59:47;24.40;99.90
21648;DHT22;10985;54.182;7.890;2023-05-14T14:02:13;24.40;99.90
21648;DHT22;10985;54.182;7.890;2023-05-14T14:04:38;24.30;99.90
21648;DHT22;10985;54.182;7.890;2023-05-14T14:07:04;24.10;99.90
21648;DHT22;10985;54.182;7.890;2023-05-14T14:09:29;24.00;99.90
21648;DHT22;10985;54.182;7.890;2023-05-14T14:12:00;24.00;99.90
21648;DHT22;10985;54.182;7.890;2023-05-14T14:14:26;23.90;99.90
21648;DHT22;10985;54.182;7.890;2023-05-14T14:16:51;23.90;99.90
21648;DHT22;10985;54.182;7.890;2023-05-14T14:19:17;23.80;99.90
21648;DHT22;10985;54.182;7.890;2023-05-14T14:21:42;23.80;99.90
21648;DHT22;10985;54.182;7.890;2023-05-14T14:24:08;23.70;99.90
21648;DHT22;10985;54.182;7.890;2023-05-14T14:26:33;23.70;99.90
21648;DHT22;10985;54.182;7.890;2023-05-14T14:28:59;23.60;99.90
21648;DHT22;10985;54.182;7.890;2023-05-14T14:31:24;23.60;99.90
21648;DHT22;10985;54.182;7.890;2023-05-14T14:33:50;23.50;99.90
21648;DHT22;10985;54.182;7.890;2023-05-14T14:36:15;23.50;99.90
21648;DHT22;10985;54.182;7.890;2023-05-14T14:38:41;23.50;99.90
21648;DHT22;10985;54.182;7.890;2023-05-14T14:41:06;23.50;99.90
21648;DHT22;10985;54.182;7.890;2023-05-14T14:43:34;23.50;99.90
21648;DHT22;10985;54.182;7.890;2023-05-14T14:45:59;23.60;99.90
21648;DHT22;10985;54.182;7.890;2023-05-14T14:50:51;23.50;99.90
21648;DHT22;10985;54.182;7.890;2023-05-14T14:53:17;23.40;99.90
21648;DHT22;10985;54.182;7.890;2023-05-14T14:55:43;23.30;99.90
21648;DHT22;10985;54.182;7.890;2023-05-14T14:58:08;23.20;99.90
21648;DHT22;10985;54.182;7.890;2023-05-14T15:00:34;23.20;99.90
21648;DHT22;10985;54.182;7.890;2023-05-14T15:03:00;23.10;99.90
21648;DHT22;10985;54.182;7.890;2023-05-14T15:05:25;23.10;99.90
21648;DHT22;10985;54.182;7.890;2023-05-14T15:07:51;23.00;99.90
21648;DHT22;10985;54.182;7.890;2023-05-14T15:10:16;22.90;99.90
21648;DHT22;10985;54.182;7.890;2023-05-14T15:12:42;22.80;99.90
21648;DHT22;10985;54.182;7.890;2023-05-14T15:15:08;22.80;99.90
21648;DHT22;10985;54.182;7.890;2023-05-14T15:17:33;22.80;99.90
21648;DHT22;10985;54.182;7.890;2023-05-14T15:19:59;22.80;99.90
21648;DHT22;10985;54.182;7.890;2023-05-14T15:22:24;22.70;99.90
21648;DHT22;10985;54.182;7.890;2023-05-14T15:24:50;22.70;99.90
21648;DHT22;10985;54.182;7.890;2023-05-14T15:27:16;22.60;99.90
21648;DHT22;10985;54.182;7.890;2023-05-14T15:29:42;22.60;99.90
21648;DHT22;10985;54.182;7.890;2023-05-14T15:32:07;22.50;99.90
21648;DHT22;10985;54.182;7.890;2023-05-14T15:34:33;22.50;99.90
21648;DHT22;10985;54.182;7.890;2023-05-14T15:36:58;22.40;99.90
21648;DHT22;10985;54.182;7.890;2023-05-14T15:39:23;22.30;99.90